createdAt,value
2022-08-26T00:01:54.325Z,98118.91
2022-08-26T00:04:23.651Z,98120.28
2022-08-26T00:06:50.967Z,98115.13
2022-08-26T00:09:18.028Z,98117.13
2022-08-26T00:11:45.786Z,98120.06
2022-08-26T00:14:13.708Z,98116.34
2022-08-26T00:16:47.277Z,98112.72
2022-08-26T00:19:20.723Z,98116.66
2022-08-26T00:21:49.678Z,98119.03
2022-08-26T00:24:19.158Z,98113.28
2022-08-26T00:26:46.379Z,98107.88
2022-08-26T00:29:13.608Z,98110.84
2022-08-26T00:31:42.102Z,98109.75
2022-08-26T00:34:11.268Z,98118.69
2022-08-26T00:36:39.707Z,98111.06
2022-08-26T00:39:08.449Z,98123.50
2022-08-26T00:41:39.856Z,98115.75
2022-08-26T00:44:11.127Z,98115.75
2022-08-26T00:46:46.480Z,98123.00
2022-08-26T00:49:19.844Z,98123.00
2022-08-26T00:51:53.394Z,98117.88
2022-08-26T00:54:26.771Z,98123.50
2022-08-26T00:57:02.745Z,98125.75
2022-08-26T00:59:32.989Z,98122.91
2022-08-26T01:02:02.684Z,98126.06
2022-08-26T01:04:33.470Z,98124.63
2022-08-26T01:07:01.588Z,98130.63
2022-08-26T01:09:29.899Z,98133.72
2022-08-26T01:12:00.956Z,98131.53
2022-08-26T01:14:32.657Z,98127.00
2022-08-26T01:17:02.917Z,98130.06
2022-08-26T01:19:38.064Z,98137.31
2022-08-26T01:22:30.570Z,98133.59
2022-08-26T01:25:00.638Z,98136.22
2022-08-26T01:27:32.914Z,98133.00
2022-08-26T01:30:02.630Z,98142.84
2022-08-26T01:32:33.205Z,98137.19
2022-08-26T01:35:00.844Z,98139.66
2022-08-26T01:37:34.588Z,98136.56
2022-08-26T01:40:01.786Z,98134.25
2022-08-26T01:42:29.806Z,98126.53
2022-08-26T01:45:19.514Z,98125.78
2022-08-26T01:47:48.692Z,98116.56
2022-08-26T01:50:27.880Z,98119.66
2022-08-26T01:52:59.497Z,98123.69
2022-08-26T01:55:33.081Z,98122.72
2022-08-26T01:58:04.746Z,98132.56
2022-08-26T02:00:33.576Z,98124.91
2022-08-26T02:03:21.484Z,98131.06
2022-08-26T02:05:54.133Z,98131.78
2022-08-26T02:08:31.077Z,98139.19
2022-08-26T02:10:58.187Z,98138.31
2022-08-26T02:13:29.982Z,98140.41
2022-08-26T02:15:58.103Z,98143.31
2022-08-26T02:18:25.878Z,98144.41
2022-08-26T02:20:54.400Z,98139.13
2022-08-26T02:23:21.256Z,98146.34
2022-08-26T02:26:03.843Z,98148.19
2022-08-26T02:28:35.848Z,98156.88
2022-08-26T02:31:03.295Z,98149.88
2022-08-26T02:33:31.926Z,98149.38
2022-08-26T02:35:58.825Z,98149.94
2022-08-26T02:38:26.112Z,98157.38
2022-08-26T02:40:52.934Z,98160.06
2022-08-26T02:43:19.819Z,98158.09
2022-08-26T02:46:00.056Z,98153.69
2022-08-26T02:48:28.482Z,98153.41
2022-08-26T02:50:55.315Z,98156.94
2022-08-26T02:53:25.418Z,98148.44
2022-08-26T02:55:52.748Z,98157.75
2022-08-26T02:58:20.601Z,98149.44
2022-08-26T03:00:52.769Z,98146.75
2022-08-26T03:03:20.778Z,98148.00
2022-08-26T03:05:51.276Z,98157.38
2022-08-26T03:08:18.189Z,98149.91
2022-08-26T03:10:46.478Z,98141.19
2022-08-26T03:13:15.596Z,98145.31
2022-08-26T03:15:42.500Z,98144.53
2022-08-26T03:18:09.774Z,98141.75
2022-08-26T03:20:37.100Z,98141.41
2022-08-26T03:23:04.031Z,98142.22
2022-08-26T03:25:31.263Z,98141.84
2022-08-26T03:27:59.439Z,98146.13
2022-08-26T03:30:45.120Z,98137.81
2022-08-26T03:33:13.737Z,98138.66
2022-08-26T03:35:43.467Z,98130.81
2022-08-26T03:38:10.863Z,98137.28
2022-08-26T03:40:38.750Z,98136.44
2022-08-26T03:43:09.859Z,98136.53
2022-08-26T03:45:37.651Z,98133.00
2022-08-26T03:48:05.433Z,98131.81
2022-08-26T03:50:34.263Z,98135.56
2022-08-26T03:53:03.978Z,98146.06
2022-08-26T03:55:32.757Z,98150.94
2022-08-26T03:58:00.780Z,98154.16
2022-08-26T04:00:28.132Z,98152.91
2022-08-26T04:02:55.514Z,98152.78
2022-08-26T04:05:23.344Z,98151.94
2022-08-26T04:07:50.814Z,98145.38
2022-08-26T04:10:20.235Z,98143.84
2022-08-26T04:12:47.260Z,98144.50
2022-08-26T04:15:16.128Z,98143.78
2022-08-26T04:17:44.625Z,98137.06
2022-08-26T04:20:16.259Z,98137.69
2022-08-26T04:22:43.277Z,98132.94
2022-08-26T04:25:10.884Z,98138.47
2022-08-26T04:27:37.786Z,98127.56
2022-08-26T04:30:07.589Z,98130.19
2022-08-26T04:32:35.649Z,98134.59
2022-08-26T04:35:04.577Z,98132.53
2022-08-26T04:37:31.512Z,98132.44
2022-08-26T04:39:59.570Z,98136.63
2022-08-26T04:42:26.463Z,98127.16
2022-08-26T04:44:53.305Z,98140.50
2022-08-26T04:47:20.133Z,98127.66
2022-08-26T04:49:46.969Z,98124.22
2022-08-26T04:52:13.728Z,98117.13
2022-08-26T04:54:41.988Z,98118.16
2022-08-26T04:57:08.930Z,98116.66
2022-08-26T04:59:39.100Z,98127.00
2022-08-26T05:02:06.891Z,98136.19
2022-08-26T05:04:34.079Z,98136.44
2022-08-26T05:07:02.834Z,98136.19
2022-08-26T05:09:30.471Z,98137.06
2022-08-26T05:11:57.408Z,98139.94
2022-08-26T05:14:24.367Z,98138.00
2022-08-26T05:16:51.748Z,98140.09
2022-08-26T05:19:18.927Z,98136.69
2022-08-26T05:21:47.743Z,98137.69
2022-08-26T05:24:14.689Z,98139.69
2022-08-26T05:26:42.151Z,98141.41
2022-08-26T05:29:11.963Z,98139.47
2022-08-26T05:31:38.781Z,98140.28
2022-08-26T05:34:05.947Z,98138.06
2022-08-26T05:36:35.611Z,98136.38
2022-08-26T05:39:05.680Z,98137.88
2022-08-26T05:41:36.394Z,98149.59
2022-08-26T05:44:07.069Z,98149.81
2022-08-26T05:46:35.088Z,98160.25
2022-08-26T05:49:02.697Z,98157.31
2022-08-26T05:51:31.018Z,98159.88
2022-08-26T05:53:58.503Z,98151.72
2022-08-26T05:56:27.423Z,98150.06
2022-08-26T05:58:56.299Z,98153.78
2022-08-26T06:01:26.952Z,98155.47
2022-08-26T06:03:57.494Z,98161.13
2022-08-26T06:06:29.373Z,98160.06
2022-08-26T06:08:59.407Z,98161.28
2022-08-26T06:11:28.682Z,98154.66
2022-08-26T06:14:03.091Z,98158.28
2022-08-26T06:16:38.605Z,98163.22
2022-08-26T06:19:10.998Z,98155.25
2022-08-26T06:21:40.036Z,98157.56
2022-08-26T06:24:28.485Z,98151.31
2022-08-26T06:26:57.918Z,98157.31
2022-08-26T06:29:28.106Z,98143.25
2022-08-26T06:31:56.679Z,98141.97
2022-08-26T06:34:26.634Z,98139.75
2022-08-26T06:37:02.462Z,98141.88
2022-08-26T06:39:30.739Z,98145.28
2022-08-26T06:41:59.369Z,98142.44
2022-08-26T06:44:26.764Z,98145.13
2022-08-26T06:46:53.851Z,98147.25
2022-08-26T06:49:25.825Z,98148.34
2022-08-26T06:51:58.343Z,98144.56
2022-08-26T06:54:26.631Z,98151.41
2022-08-26T06:56:53.717Z,98142.91
2022-08-26T06:59:21.829Z,98141.38
2022-08-26T07:01:49.822Z,98140.78
2022-08-26T07:04:20.107Z,98132.00
2022-08-26T07:06:52.415Z,98134.34
2022-08-26T07:09:26.962Z,98136.41
2022-08-26T07:11:56.275Z,98137.91
2022-08-26T07:14:24.900Z,98135.28
2022-08-26T07:16:53.453Z,98141.56
2022-08-26T07:19:29.861Z,98140.03
2022-08-26T07:22:03.898Z,98148.72
2022-08-26T07:24:35.742Z,98143.25
2022-08-26T07:27:08.786Z,98151.75
2022-08-26T07:29:37.450Z,98154.38
2022-08-26T07:32:05.155Z,98150.69
2022-08-26T07:34:33.337Z,98154.59
2022-08-26T07:37:00.599Z,98152.31
2022-08-26T07:39:28.361Z,98144.16
2022-08-26T07:42:01.340Z,98150.97
2022-08-26T07:44:29.530Z,98147.72
2022-08-26T07:46:56.611Z,98150.22
2022-08-26T07:49:26.947Z,98150.19
2022-08-26T07:51:55.942Z,98148.69
2022-08-26T07:54:27.015Z,98148.69
2022-08-26T07:56:55.913Z,98148.09
2022-08-26T07:59:23.357Z,98151.00
2022-08-26T08:01:50.668Z,98153.13
2022-08-26T08:04:21.877Z,98145.91
2022-08-26T08:06:53.794Z,98147.88
2022-08-26T08:09:22.424Z,98150.28
2022-08-26T08:11:49.860Z,98143.56
2022-08-26T08:14:18.514Z,98156.03
2022-08-26T08:16:51.279Z,98161.66
2022-08-26T08:19:23.110Z,98162.66
2022-08-26T08:21:50.803Z,98165.06
2022-08-26T08:24:18.069Z,98158.69
2022-08-26T08:26:45.927Z,98163.53
2022-08-26T08:29:13.210Z,98166.41
2022-08-26T08:31:58.420Z,98159.88
2022-08-26T08:34:28.223Z,98160.63
2022-08-26T08:36:56.197Z,98155.09
2022-08-26T08:39:24.292Z,98162.28
2022-08-26T08:41:56.922Z,98155.47
2022-08-26T08:47:00.865Z,98163.09
2022-08-26T08:49:28.389Z,98159.66
2022-08-26T08:52:05.277Z,98167.25
2022-08-26T08:54:33.875Z,98167.38
2022-08-26T08:57:13.582Z,98164.59
2022-08-26T08:59:53.258Z,98169.41
2022-08-26T09:02:44.064Z,98170.94
2022-08-26T09:05:23.052Z,98178.47
2022-08-26T09:08:01.970Z,98177.56
2022-08-26T09:10:47.147Z,98177.13
2022-08-26T09:13:25.386Z,98187.44
2022-08-26T09:16:10.105Z,98182.00
2022-08-26T09:19:19.149Z,98185.72
2022-08-26T09:21:46.496Z,98183.41
2022-08-26T09:24:20.214Z,98184.09
2022-08-26T09:26:49.776Z,98195.34
2022-08-26T09:29:26.217Z,98188.84
2022-08-26T09:32:16.082Z,98192.44
2022-08-26T09:35:07.418Z,98189.13
2022-08-26T09:37:43.587Z,98187.84
2022-08-26T09:40:27.070Z,98190.78
2022-08-26T09:43:09.662Z,98182.53
2022-08-26T09:45:38.795Z,98194.69
2022-08-26T09:48:06.716Z,98190.75
2022-08-26T09:50:40.961Z,98187.78
2022-08-26T09:53:14.855Z,98184.25
2022-08-26T09:55:47.783Z,98170.84
2022-08-26T09:58:38.078Z,98170.81
2022-08-26T10:01:14.866Z,98167.25
2022-08-26T10:03:43.331Z,98165.47
2022-08-26T10:06:16.265Z,98168.47
2022-08-26T10:08:47.418Z,98149.50
2022-08-26T10:11:31.056Z,98156.81
2022-08-26T10:14:08.509Z,98143.56
2022-08-26T10:16:48.301Z,98144.53
2022-08-26T10:19:29.083Z,98143.91
2022-08-26T10:22:13.849Z,98140.66
2022-08-26T10:24:55.856Z,98146.22
2022-08-26T10:27:36.585Z,98132.69
2022-08-26T10:30:17.276Z,98135.03
2022-08-26T10:32:53.891Z,98130.91
2022-08-26T10:35:21.291Z,98130.28
2022-08-26T10:37:54.106Z,98128.13
2022-08-26T10:40:26.496Z,98137.50
2022-08-26T10:43:10.905Z,98132.66
2022-08-26T10:45:46.576Z,98124.94
2022-08-26T10:48:21.277Z,98127.75
2022-08-26T10:50:49.113Z,98128.88
2022-08-26T10:53:37.834Z,98132.56
2022-08-26T10:56:46.412Z,98133.66
2022-08-26T10:59:22.139Z,98128.13
2022-08-26T11:02:03.880Z,98123.28
2022-08-26T11:04:42.374Z,98125.19
2022-08-26T11:07:44.259Z,98120.41
2022-08-26T11:10:17.278Z,98125.56
2022-08-26T11:12:45.344Z,98129.47
2022-08-26T11:15:24.519Z,98115.97
2022-08-26T11:17:51.682Z,98117.00
2022-08-26T11:20:47.112Z,98118.59
2022-08-26T11:23:16.939Z,98124.78
2022-08-26T11:25:55.944Z,98128.53
2022-08-26T11:28:44.542Z,98126.38
2022-08-26T11:31:33.211Z,98126.16
2022-08-26T11:34:08.852Z,98132.06
2022-08-26T11:36:46.655Z,98133.25
2022-08-26T11:39:19.637Z,98140.31
2022-08-26T11:41:52.883Z,98140.94
2022-08-26T11:44:26.275Z,98129.81
2022-08-26T11:47:03.117Z,98135.16
2022-08-26T11:49:31.768Z,98141.78
2022-08-26T11:52:09.457Z,98132.56
2022-08-26T11:54:36.462Z,98129.97
2022-08-26T11:57:11.774Z,98132.09
2022-08-26T11:59:41.083Z,98125.66
2022-08-26T12:02:17.894Z,98127.63
2022-08-26T12:04:49.479Z,98134.22
2022-08-26T12:07:24.127Z,98141.63
2022-08-26T12:10:04.697Z,98133.19
2022-08-26T12:12:42.438Z,98142.16
2022-08-26T12:15:14.505Z,98133.88
2022-08-26T12:17:43.264Z,98132.28
2022-08-26T12:20:20.723Z,98134.81
2022-08-26T12:22:48.127Z,98124.50
2022-08-26T12:25:24.068Z,98134.28
2022-08-26T12:27:53.655Z,98126.00
2022-08-26T12:30:26.231Z,98138.53
2022-08-26T12:33:21.922Z,98143.41
2022-08-26T12:35:54.781Z,98137.25
2022-08-26T12:38:26.720Z,98141.19
2022-08-26T12:40:53.681Z,98143.16
2022-08-26T12:43:38.477Z,98145.59
2022-08-26T12:46:06.659Z,98135.75
2022-08-26T12:48:36.435Z,98136.75
2022-08-26T12:51:06.020Z,98143.31
2022-08-26T12:53:35.141Z,98140.97
2022-08-26T12:56:17.142Z,98126.91
2022-08-26T12:58:44.164Z,98125.47
2022-08-26T13:01:11.020Z,98125.31
2022-08-26T13:03:45.432Z,98119.75
2022-08-26T13:06:22.439Z,98123.63
2022-08-26T13:09:00.669Z,98109.63
2022-08-26T13:11:32.678Z,98111.91
2022-08-26T13:14:01.037Z,98105.91
2022-08-26T13:16:29.139Z,98107.34
2022-08-26T13:19:01.482Z,98108.47
2022-08-26T13:21:29.942Z,98112.31
2022-08-26T13:24:33.307Z,98109.75
2022-08-26T13:27:01.769Z,98112.94
2022-08-26T13:29:28.709Z,98112.81
2022-08-26T13:31:55.700Z,98115.13
2022-08-26T13:34:23.397Z,98120.63
2022-08-26T13:36:52.426Z,98106.75
2022-08-26T13:39:20.224Z,98119.19
2022-08-26T13:41:47.283Z,98106.16
2022-08-26T13:44:14.097Z,98102.41
2022-08-26T13:46:41.078Z,98100.59
2022-08-26T13:49:08.112Z,98102.56
2022-08-26T13:51:35.683Z,98101.06
2022-08-26T13:54:02.485Z,98103.78
2022-08-26T13:56:29.875Z,98110.09
2022-08-26T13:58:58.010Z,98103.00
2022-08-26T14:01:25.304Z,98109.41
2022-08-26T14:03:52.721Z,98102.53
2022-08-26T14:06:25.222Z,98110.78
2022-08-26T14:08:52.104Z,98109.38
2022-08-26T14:11:20.463Z,98112.47
2022-08-26T14:13:47.185Z,98116.53
2022-08-26T14:16:33.298Z,98118.31
2022-08-26T14:19:01.426Z,98120.28
2022-08-26T14:21:31.106Z,98113.84
2022-08-26T14:24:00.952Z,98120.75
2022-08-26T14:26:29.763Z,98119.41
2022-08-26T14:28:58.632Z,98123.38
2022-08-26T14:31:26.904Z,98114.25
2022-08-26T14:33:57.027Z,98119.50
2022-08-26T14:36:31.273Z,98131.16
2022-08-26T14:39:05.595Z,98116.66
2022-08-26T14:41:34.414Z,98117.75
2022-08-26T14:44:08.151Z,98106.22
2022-08-26T14:46:42.413Z,98115.91
2022-08-26T14:49:10.738Z,98118.13
2022-08-26T14:51:38.704Z,98116.69
2022-08-26T14:54:14.603Z,98123.00
2022-08-26T14:56:49.190Z,98118.38
2022-08-26T14:59:22.481Z,98119.06
2022-08-26T15:01:50.145Z,98116.50
2022-08-26T15:04:17.003Z,98110.16
2022-08-26T15:06:44.225Z,98104.66
2022-08-26T15:09:11.342Z,98104.19
2022-08-26T15:11:38.153Z,98107.28
2022-08-26T15:14:05.468Z,98105.56
2022-08-26T15:16:32.622Z,98112.75
2022-08-26T15:19:00.755Z,98110.03
2022-08-26T15:21:27.570Z,98122.09
2022-08-26T15:23:54.718Z,98117.34
2022-08-26T15:26:23.050Z,98119.53
2022-08-26T15:28:50.097Z,98117.16
2022-08-26T15:31:17.664Z,98122.81
2022-08-26T15:33:45.636Z,98132.06
2022-08-26T15:36:12.399Z,98132.56
2022-08-26T15:38:42.423Z,98145.88
2022-08-26T15:41:10.212Z,98148.09
2022-08-26T15:43:38.254Z,98156.91
2022-08-26T15:46:10.985Z,98161.22
2022-08-26T15:48:38.459Z,98150.91
2022-08-26T15:51:06.852Z,98153.13
2022-08-26T15:53:35.126Z,98143.88
2022-08-26T15:56:02.252Z,98143.34
2022-08-26T15:58:29.723Z,98148.81
2022-08-26T16:00:57.567Z,98144.91
2022-08-26T16:03:24.563Z,98152.13
2022-08-26T16:05:51.548Z,98160.03
2022-08-26T16:08:18.928Z,98162.78
2022-08-26T16:10:50.348Z,98172.44
2022-08-26T16:13:19.974Z,98168.47
2022-08-26T16:15:50.001Z,98192.03
2022-08-26T16:18:16.980Z,98191.25
2022-08-26T16:20:55.327Z,98198.63
2022-08-26T16:23:38.402Z,98193.69
2022-08-26T16:26:10.576Z,98189.97
2022-08-26T16:28:38.392Z,98189.31
2022-08-26T16:31:06.565Z,98185.31
2022-08-26T16:33:33.598Z,98187.38
2022-08-26T16:36:00.404Z,98187.91
2022-08-26T16:38:27.200Z,98173.13
2022-08-26T16:40:53.948Z,98172.53
2022-08-26T16:43:20.673Z,98175.41
2022-08-26T16:45:47.382Z,98168.88
2022-08-26T16:48:14.187Z,98155.19
2022-08-26T16:50:41.871Z,98158.75
2022-08-26T16:53:15.943Z,98165.63
2022-08-26T16:55:50.134Z,98160.13
2022-08-26T16:58:17.864Z,98159.81
2022-08-26T17:00:45.320Z,98161.13
2022-08-26T17:03:12.331Z,98156.75
2022-08-26T17:05:40.128Z,98163.91
2022-08-26T17:08:07.381Z,98160.78
2022-08-26T17:10:34.592Z,98168.34
2022-08-26T17:13:01.451Z,98160.38
2022-08-26T17:15:28.528Z,98169.78
2022-08-26T17:17:56.086Z,98164.94
2022-08-26T17:20:24.749Z,98167.78
2022-08-26T17:22:53.343Z,98153.16
2022-08-26T17:25:24.044Z,98151.59
2022-08-26T17:27:50.947Z,98153.53
2022-08-26T17:30:18.065Z,98153.78
2022-08-26T17:32:45.397Z,98152.22
2022-08-26T17:35:13.721Z,98151.53
2022-08-26T17:37:41.238Z,98146.06
2022-08-26T17:40:12.589Z,98147.44
2022-08-26T17:42:40.391Z,98154.22
2022-08-26T17:45:08.568Z,98155.38
2022-08-26T17:47:36.027Z,98153.75
2022-08-26T17:50:04.492Z,98162.91
2022-08-26T17:52:31.238Z,98168.66
2022-08-26T17:54:58.936Z,98162.97
2022-08-26T17:57:26.514Z,98165.00
2022-08-26T17:59:54.361Z,98168.72
2022-08-26T18:02:21.629Z,98155.91
2022-08-26T18:04:48.839Z,98161.75
2022-08-26T18:07:16.148Z,98165.06
2022-08-26T18:09:43.589Z,98169.50
2022-08-26T18:12:11.037Z,98168.06
2022-08-26T18:14:38.520Z,98164.06
2022-08-26T18:17:05.316Z,98158.94
2022-08-26T18:19:32.141Z,98158.25
2022-08-26T18:21:59.002Z,98167.25
2022-08-26T18:24:25.850Z,98167.81
2022-08-26T18:26:52.615Z,98165.41
2022-08-26T18:29:20.003Z,98183.22
2022-08-26T18:31:48.445Z,98170.13
2022-08-26T18:34:19.691Z,98182.38
2022-08-26T18:36:46.918Z,98176.66
2022-08-26T18:39:15.234Z,98176.09
2022-08-26T18:41:47.345Z,98170.38
2022-08-26T18:44:16.492Z,98184.81
2022-08-26T18:46:44.447Z,98191.09
2022-08-26T18:49:12.993Z,98197.34
2022-08-26T18:51:40.276Z,98200.81
2022-08-26T18:54:07.699Z,98205.66
2022-08-26T18:56:36.194Z,98211.78
2022-08-26T18:59:05.162Z,98221.19
2022-08-26T19:01:33.300Z,98217.63
2022-08-26T19:04:02.789Z,98227.25
2022-08-26T19:06:32.781Z,98229.69
2022-08-26T19:09:00.371Z,98225.25
2022-08-26T19:11:32.000Z,98224.53
2022-08-26T19:14:07.253Z,98225.47
2022-08-26T19:16:35.219Z,98231.03
2022-08-26T19:19:02.653Z,98238.56
2022-08-26T19:21:31.327Z,98238.38
2022-08-26T19:23:59.488Z,98245.78
2022-08-26T19:26:27.520Z,98249.75
2022-08-26T19:28:54.561Z,98255.84
2022-08-26T19:31:21.483Z,98252.47
2022-08-26T19:33:48.483Z,98256.03
2022-08-26T19:36:18.449Z,98254.31
2022-08-26T19:38:45.935Z,98253.00
2022-08-26T19:41:14.722Z,98262.66
2022-08-26T19:43:42.373Z,98257.63
2022-08-26T19:46:13.736Z,98261.31
2022-08-26T19:48:43.887Z,98264.88
2022-08-26T19:51:15.602Z,98263.63
2022-08-26T19:53:43.989Z,98257.06
2022-08-26T19:56:11.303Z,98259.75
2022-08-26T19:58:38.705Z,98252.75
2022-08-26T20:01:06.321Z,98261.16
2022-08-26T20:03:33.969Z,98259.81
2022-08-26T20:06:03.448Z,98256.84
2022-08-26T20:08:30.231Z,98254.06
2022-08-26T20:11:01.409Z,98253.72
2022-08-26T20:13:28.388Z,98252.53
2022-08-26T20:15:55.139Z,98250.16
2022-08-26T20:18:48.083Z,98254.94
2022-08-26T20:21:27.348Z,98258.28
2022-08-26T20:24:04.865Z,98256.16
2022-08-26T20:26:37.000Z,98257.75
2022-08-26T20:29:05.097Z,98264.31
2022-08-26T20:31:32.193Z,98268.00
2022-08-26T20:33:59.050Z,98270.09
2022-08-26T20:36:27.485Z,98271.38
2022-08-26T20:38:55.316Z,98277.63
2022-08-26T20:41:25.313Z,98273.81
2022-08-26T20:43:56.107Z,98279.94
2022-08-26T20:46:25.216Z,98285.56
2022-08-26T20:48:53.017Z,98289.03
2022-08-26T20:51:22.855Z,98293.47
2022-08-26T20:53:50.525Z,98293.13
2022-08-26T20:56:24.207Z,98287.59
2022-08-26T20:58:53.339Z,98297.72
2022-08-26T21:01:23.733Z,98290.19
2022-08-26T21:03:55.194Z,98294.75
2022-08-26T21:06:22.231Z,98296.25
2022-08-26T21:08:49.998Z,98299.47
2022-08-26T21:11:19.751Z,98302.56
2022-08-26T21:14:04.499Z,98303.78
2022-08-26T21:16:36.127Z,98298.63
2022-08-26T21:19:08.239Z,98308.38
2022-08-26T21:21:35.632Z,98292.59
2022-08-26T21:24:02.642Z,98298.41
2022-08-26T21:26:29.410Z,98291.53
2022-08-26T21:28:56.281Z,98286.22
2022-08-26T21:31:25.055Z,98290.16
2022-08-26T21:33:52.274Z,98283.53
2022-08-26T21:36:19.984Z,98280.22
2022-08-26T21:38:48.281Z,98280.72
2022-08-26T21:41:24.189Z,98275.94
2022-08-26T21:43:53.811Z,98278.53
2022-08-26T21:46:24.543Z,98275.44
2022-08-26T21:48:55.342Z,98280.75
2022-08-26T21:51:24.157Z,98287.97
2022-08-26T21:53:52.801Z,98283.09
2022-08-26T21:56:21.184Z,98281.25
2022-08-26T21:58:48.655Z,98288.94
2022-08-26T22:01:21.446Z,98282.22
2022-08-26T22:03:49.614Z,98282.94
2022-08-26T22:06:19.017Z,98280.84
2022-08-26T22:08:45.805Z,98281.69
2022-08-26T22:11:13.447Z,98287.13
2022-08-26T22:13:42.440Z,98281.09
2022-08-26T22:16:10.355Z,98290.66
2022-08-26T22:18:38.484Z,98286.47
2022-08-26T22:21:11.366Z,98293.13
2022-08-26T22:23:38.953Z,98292.41
2022-08-26T22:26:07.644Z,98290.41
2022-08-26T22:28:35.497Z,98297.31
2022-08-26T22:31:02.387Z,98290.44
2022-08-26T22:33:29.502Z,98297.81
2022-08-26T22:35:56.320Z,98292.63
2022-08-26T22:38:23.900Z,98302.34
2022-08-26T22:40:56.986Z,98306.03
2022-08-26T22:43:24.962Z,98309.44
2022-08-26T22:45:53.077Z,98310.22
2022-08-26T22:48:23.399Z,98311.69
2022-08-26T22:50:51.050Z,98320.03
2022-08-26T22:53:18.704Z,98310.91
2022-08-26T22:55:46.486Z,98310.56
2022-08-26T22:58:15.568Z,98312.06
2022-08-26T23:00:44.149Z,98315.25
2022-08-26T23:03:11.842Z,98315.72
2022-08-26T23:05:39.559Z,98313.66
2022-08-26T23:08:07.179Z,98317.22
2022-08-26T23:10:34.466Z,98310.56
2022-08-26T23:13:01.723Z,98307.75
2022-08-26T23:15:28.680Z,98312.66
2022-08-26T23:17:58.680Z,98318.94
2022-08-26T23:20:26.836Z,98317.84
2022-08-26T23:22:54.869Z,98316.22
2022-08-26T23:25:22.101Z,98313.47
2022-08-26T23:27:51.398Z,98312.75
2022-08-26T23:30:21.825Z,98310.03
2022-08-26T23:32:49.094Z,98320.13
2022-08-26T23:35:20.040Z,98316.78
2022-08-26T23:37:50.127Z,98316.41
2022-08-26T23:40:25.458Z,98318.63
2022-08-26T23:42:54.217Z,98314.19
2022-08-26T23:45:22.514Z,98310.63
2022-08-26T23:47:52.475Z,98312.34
2022-08-26T23:50:21.660Z,98315.91
2022-08-26T23:53:08.735Z,98312.94
2022-08-26T23:55:37.603Z,98310.97
2022-08-26T23:58:05.693Z,98309.13
